sensor_id;sensor_type;location;lat;lon;timestamp;P1;durP1;ratioP1;P2;durP2;ratioP2
15699;SDS011;7950;42.744;23.174;2023-04-16T00:00:26;3.37;;;2.13;;
15699;SDS011;7950;42.744;23.174;2023-04-16T00:03:00;4.83;;;2.43;;
15699;SDS011;7950;42.744;23.174;2023-04-16T00:05:30;2.67;;;1.70;;
15699;SDS011;7950;42.744;23.174;2023-04-16T00:07:59;3.40;;;1.87;;
15699;SDS011;7950;42.744;23.174;2023-04-16T00:10:27;4.27;;;2.00;;
15699;SDS011;7950;42.744;23.174;2023-04-16T00:12:56;3.90;;;1.93;;
15699;SDS011;7950;42.744;23.174;2023-04-16T00:15:24;2.73;;;1.73;;
15699;SDS011;7950;42.744;23.174;2023-04-16T00:17:53;2.67;;;1.57;;
15699;SDS011;7950;42.744;23.174;2023-04-16T00:20:21;5.40;;;2.00;;
15699;SDS011;7950;42.744;23.174;2023-04-16T00:22:51;7.37;;;2.50;;
15699;SDS011;7950;42.744;23.174;2023-04-16T00:25:19;3.87;;;1.70;;
15699;SDS011;7950;42.744;23.174;2023-04-16T00:30:41;6.00;;;2.47;;
15699;SDS011;7950;42.744;23.174;2023-04-16T00:33:10;2.70;;;2.00;;
15699;SDS011;7950;42.744;23.174;2023-04-16T00:35:44;2.40;;;2.13;;
15699;SDS011;7950;42.744;23.174;2023-04-16T00:38:14;5.27;;;2.20;;
15699;SDS011;7950;42.744;23.174;2023-04-16T00:40:43;4.77;;;2.13;;
15699;SDS011;7950;42.744;23.174;2023-04-16T00:46:06;3.47;;;2.13;;
15699;SDS011;7950;42.744;23.174;2023-04-16T00:48:35;4.77;;;2.53;;
15699;SDS011;7950;42.744;23.174;2023-04-16T00:51:07;5.57;;;2.90;;
15699;SDS011;7950;42.744;23.174;2023-04-16T00:56:33;4.70;;;2.27;;
15699;SDS011;7950;42.744;23.174;2023-04-16T00:59:02;3.73;;;2.67;;
15699;SDS011;7950;42.744;23.174;2023-04-16T01:01:31;4.73;;;3.10;;
15699;SDS011;7950;42.744;23.174;2023-04-16T01:04:00;4.90;;;3.20;;
15699;SDS011;7950;42.744;23.174;2023-04-16T01:06:29;5.30;;;2.87;;
15699;SDS011;7950;42.744;23.174;2023-04-16T01:08:57;3.30;;;2.40;;
15699;SDS011;7950;42.744;23.174;2023-04-16T01:11:27;3.30;;;2.73;;
15699;SDS011;7950;42.744;23.174;2023-04-16T01:13:56;3.27;;;2.80;;
15699;SDS011;7950;42.744;23.174;2023-04-16T01:16:24;4.83;;;2.70;;
15699;SDS011;7950;42.744;23.174;2023-04-16T01:18:53;4.20;;;2.70;;
15699;SDS011;7950;42.744;23.174;2023-04-16T01:21:23;3.50;;;2.50;;
15699;SDS011;7950;42.744;23.174;2023-04-16T01:23:51;6.20;;;2.47;;
15699;SDS011;7950;42.744;23.174;2023-04-16T01:26:20;4.17;;;2.50;;
15699;SDS011;7950;42.744;23.174;2023-04-16T01:28:48;2.97;;;2.10;;
15699;SDS011;7950;42.744;23.174;2023-04-16T01:31:17;3.40;;;2.30;;
15699;SDS011;7950;42.744;23.174;2023-04-16T01:33:45;2.90;;;2.13;;
15699;SDS011;7950;42.744;23.174;2023-04-16T01:36:14;5.10;;;2.60;;
15699;SDS011;7950;42.744;23.174;2023-04-16T01:38:44;4.27;;;3.00;;
15699;SDS011;7950;42.744;23.174;2023-04-16T01:44:28;4.57;;;2.90;;
15699;SDS011;7950;42.744;23.174;2023-04-16T01:46:57;4.73;;;3.07;;
15699;SDS011;7950;42.744;23.174;2023-04-16T01:49:25;3.33;;;2.70;;
15699;SDS011;7950;42.744;23.174;2023-04-16T01:51:54;4.17;;;3.10;;
15699;SDS011;7950;42.744;23.174;2023-04-16T01:54:24;5.53;;;3.00;;
15699;SDS011;7950;42.744;23.174;2023-04-16T01:56:52;6.37;;;2.73;;
15699;SDS011;7950;42.744;23.174;2023-04-16T01:59:21;4.57;;;2.67;;
15699;SDS011;7950;42.744;23.174;2023-04-16T02:01:49;4.57;;;2.60;;
15699;SDS011;7950;42.744;23.174;2023-04-16T02:04:18;3.27;;;2.60;;
15699;SDS011;7950;42.744;23.174;2023-04-16T02:06:47;3.80;;;2.63;;
15699;SDS011;7950;42.744;23.174;2023-04-16T02:09:15;4.80;;;2.87;;
15699;SDS011;7950;42.744;23.174;2023-04-16T02:11:45;4.83;;;2.70;;
15699;SDS011;7950;42.744;23.174;2023-04-16T02:14:14;6.03;;;2.60;;
15699;SDS011;7950;42.744;23.174;2023-04-16T02:16:42;4.67;;;2.87;;
15699;SDS011;7950;42.744;23.174;2023-04-16T02:19:11;4.20;;;2.40;;
15699;SDS011;7950;42.744;23.174;2023-04-16T02:24:38;4.90;;;2.90;;
15699;SDS011;7950;42.744;23.174;2023-04-16T02:27:08;5.03;;;3.03;;
15699;SDS011;7950;42.744;23.174;2023-04-16T02:29:37;4.97;;;2.83;;
15699;SDS011;7950;42.744;23.174;2023-04-16T02:32:05;4.27;;;2.60;;
15699;SDS011;7950;42.744;23.174;2023-04-16T02:34:34;6.53;;;2.97;;
15699;SDS011;7950;42.744;23.174;2023-04-16T02:37:05;5.20;;;3.00;;
15699;SDS011;7950;42.744;23.174;2023-04-16T02:39:33;5.50;;;2.93;;
15699;SDS011;7950;42.744;23.174;2023-04-16T02:42:03;4.87;;;3.30;;
15699;SDS011;7950;42.744;23.174;2023-04-16T02:44:33;4.20;;;3.10;;
15699;SDS011;7950;42.744;23.174;2023-04-16T02:47:01;7.03;;;3.60;;
15699;SDS011;7950;42.744;23.174;2023-04-16T02:49:30;4.10;;;3.00;;
15699;SDS011;7950;42.744;23.174;2023-04-16T02:51:58;5.77;;;3.00;;
15699;SDS011;7950;42.744;23.174;2023-04-16T02:54:27;4.43;;;3.20;;
15699;SDS011;7950;42.744;23.174;2023-04-16T02:56:55;4.70;;;3.37;;
15699;SDS011;7950;42.744;23.174;2023-04-16T02:59:24;5.50;;;3.43;;
15699;SDS011;7950;42.744;23.174;2023-04-16T03:01:54;5.53;;;3.27;;
15699;SDS011;7950;42.744;23.174;2023-04-16T03:04:22;5.97;;;3.27;;
15699;SDS011;7950;42.744;23.174;2023-04-16T03:06:51;5.70;;;3.40;;
15699;SDS011;7950;42.744;23.174;2023-04-16T03:09:19;4.67;;;3.30;;
15699;SDS011;7950;42.744;23.174;2023-04-16T03:11:48;6.73;;;3.10;;
15699;SDS011;7950;42.744;23.174;2023-04-16T03:14:16;4.73;;;3.20;;
15699;SDS011;7950;42.744;23.174;2023-04-16T03:16:45;5.67;;;3.20;;
15699;SDS011;7950;42.744;23.174;2023-04-16T03:19:14;5.10;;;3.13;;
15699;SDS011;7950;42.744;23.174;2023-04-16T03:21:43;4.20;;;3.10;;
15699;SDS011;7950;42.744;23.174;2023-04-16T03:24:11;7.53;;;3.40;;
15699;SDS011;7950;42.744;23.174;2023-04-16T03:26:40;4.83;;;3.30;;
15699;SDS011;7950;42.744;23.174;2023-04-16T03:29:09;7.63;;;3.03;;
15699;SDS011;7950;42.744;23.174;2023-04-16T03:31:37;4.30;;;3.10;;
15699;SDS011;7950;42.744;23.174;2023-04-16T03:34:06;6.10;;;3.03;;
15699;SDS011;7950;42.744;23.174;2023-04-16T03:36:36;4.87;;;2.90;;
15699;SDS011;7950;42.744;23.174;2023-04-16T03:39:05;5.80;;;2.83;;
15699;SDS011;7950;42.744;23.174;2023-04-16T03:41:34;5.03;;;3.00;;
15699;SDS011;7950;42.744;23.174;2023-04-16T03:46:59;3.90;;;2.97;;
15699;SDS011;7950;42.744;23.174;2023-04-16T03:49:30;5.70;;;2.90;;
15699;SDS011;7950;42.744;23.174;2023-04-16T03:52:00;6.40;;;3.30;;
15699;SDS011;7950;42.744;23.174;2023-04-16T03:54:28;5.50;;;3.30;;
15699;SDS011;7950;42.744;23.174;2023-04-16T03:56:57;3.50;;;3.07;;
15699;SDS011;7950;42.744;23.174;2023-04-16T03:59:25;5.03;;;3.20;;
15699;SDS011;7950;42.744;23.174;2023-04-16T04:01:54;5.27;;;3.37;;
15699;SDS011;7950;42.744;23.174;2023-04-16T04:07:17;4.87;;;3.20;;
15699;SDS011;7950;42.744;23.174;2023-04-16T04:09:46;4.87;;;3.20;;
15699;SDS011;7950;42.744;23.174;2023-04-16T04:15:08;3.77;;;2.93;;
15699;SDS011;7950;42.744;23.174;2023-04-16T04:17:37;4.93;;;3.37;;
15699;SDS011;7950;42.744;23.174;2023-04-16T04:20:06;4.77;;;3.27;;
15699;SDS011;7950;42.744;23.174;2023-04-16T04:22:37;7.37;;;3.40;;
15699;SDS011;7950;42.744;23.174;2023-04-16T04:25:06;7.60;;;4.10;;
15699;SDS011;7950;42.744;23.174;2023-04-16T04:27:36;4.60;;;3.20;;
15699;SDS011;7950;42.744;23.174;2023-04-16T04:30:11;4.43;;;3.03;;
15699;SDS011;7950;42.744;23.174;2023-04-16T04:32:39;4.90;;;3.27;;
15699;SDS011;7950;42.744;23.174;2023-04-16T04:35:16;4.17;;;3.20;;
15699;SDS011;7950;42.744;23.174;2023-04-16T04:37:46;4.77;;;3.00;;
15699;SDS011;7950;42.744;23.174;2023-04-16T04:40:24;4.40;;;3.43;;
15699;SDS011;7950;42.744;23.174;2023-04-16T04:42:52;5.13;;;3.13;;
15699;SDS011;7950;42.744;23.174;2023-04-16T04:45:21;3.47;;;3.00;;
15699;SDS011;7950;42.744;23.174;2023-04-16T04:47:51;3.73;;;2.80;;
15699;SDS011;7950;42.744;23.174;2023-04-16T04:50:19;4.10;;;2.87;;
15699;SDS011;7950;42.744;23.174;2023-04-16T04:52:50;4.47;;;3.10;;
15699;SDS011;7950;42.744;23.174;2023-04-16T04:55:18;6.73;;;4.27;;
15699;SDS011;7950;42.744;23.174;2023-04-16T04:57:47;9.30;;;6.40;;
15699;SDS011;7950;42.744;23.174;2023-04-16T05:00:16;8.57;;;5.13;;
15699;SDS011;7950;42.744;23.174;2023-04-16T05:02:44;5.93;;;4.77;;
15699;SDS011;7950;42.744;23.174;2023-04-16T05:05:28;6.30;;;4.67;;
15699;SDS011;7950;42.744;23.174;2023-04-16T05:07:58;5.60;;;4.43;;
15699;SDS011;7950;42.744;23.174;2023-04-16T05:10:27;4.93;;;3.77;;
15699;SDS011;7950;42.744;23.174;2023-04-16T05:12:55;7.83;;;4.43;;
15699;SDS011;7950;42.744;23.174;2023-04-16T05:15:24;6.47;;;3.30;;
15699;SDS011;7950;42.744;23.174;2023-04-16T05:17:52;4.00;;;3.00;;
15699;SDS011;7950;42.744;23.174;2023-04-16T05:20:21;5.87;;;4.00;;
15699;SDS011;7950;42.744;23.174;2023-04-16T05:22:50;6.33;;;4.10;;
15699;SDS011;7950;42.744;23.174;2023-04-16T05:25:22;4.33;;;3.43;;
15699;SDS011;7950;42.744;23.174;2023-04-16T05:27:50;8.43;;;3.50;;
15699;SDS011;7950;42.744;23.174;2023-04-16T05:30:19;6.53;;;3.70;;
15699;SDS011;7950;42.744;23.174;2023-04-16T05:32:47;5.40;;;3.83;;
15699;SDS011;7950;42.744;23.174;2023-04-16T05:35:17;5.63;;;4.40;;
15699;SDS011;7950;42.744;23.174;2023-04-16T05:37:45;5.60;;;3.90;;
15699;SDS011;7950;42.744;23.174;2023-04-16T05:40:14;6.50;;;4.57;;
15699;SDS011;7950;42.744;23.174;2023-04-16T05:42:44;7.27;;;5.00;;
15699;SDS011;7950;42.744;23.174;2023-04-16T05:45:12;25.27;;;16.90;;
15699;SDS011;7950;42.744;23.174;2023-04-16T05:50:39;10.70;;;8.70;;
15699;SDS011;7950;42.744;23.174;2023-04-16T05:53:08;8.87;;;6.50;;
15699;SDS011;7950;42.744;23.174;2023-04-16T05:55:36;6.93;;;4.67;;
15699;SDS011;7950;42.744;23.174;2023-04-16T05:58:06;4.97;;;3.63;;
15699;SDS011;7950;42.744;23.174;2023-04-16T06:00:34;6.00;;;3.27;;
15699;SDS011;7950;42.744;23.174;2023-04-16T06:03:03;6.83;;;2.63;;
15699;SDS011;7950;42.744;23.174;2023-04-16T06:05:32;4.87;;;3.00;;
15699;SDS011;7950;42.744;23.174;2023-04-16T06:08:00;4.77;;;2.40;;
15699;SDS011;7950;42.744;23.174;2023-04-16T06:10:29;2.60;;;2.23;;
15699;SDS011;7950;42.744;23.174;2023-04-16T06:12:57;3.63;;;2.50;;
15699;SDS011;7950;42.744;23.174;2023-04-16T06:15:28;4.37;;;2.60;;
15699;SDS011;7950;42.744;23.174;2023-04-16T06:20:49;4.00;;;3.20;;
15699;SDS011;7950;42.744;23.174;2023-04-16T06:23:18;4.07;;;2.50;;
15699;SDS011;7950;42.744;23.174;2023-04-16T06:25:47;5.23;;;2.50;;
15699;SDS011;7950;42.744;23.174;2023-04-16T06:28:17;4.53;;;2.87;;
15699;SDS011;7950;42.744;23.174;2023-04-16T06:30:46;6.13;;;2.97;;
15699;SDS011;7950;42.744;23.174;2023-04-16T06:33:15;4.87;;;3.07;;
15699;SDS011;7950;42.744;23.174;2023-04-16T06:35:43;5.03;;;3.00;;
15699;SDS011;7950;42.744;23.174;2023-04-16T06:38:13;4.80;;;2.83;;
15699;SDS011;7950;42.744;23.174;2023-04-16T06:40:41;5.83;;;3.33;;
15699;SDS011;7950;42.744;23.174;2023-04-16T06:43:10;5.63;;;3.60;;
15699;SDS011;7950;42.744;23.174;2023-04-16T06:45:38;6.63;;;3.70;;
15699;SDS011;7950;42.744;23.174;2023-04-16T06:48:08;7.63;;;3.23;;
15699;SDS011;7950;42.744;23.174;2023-04-16T06:50:37;5.80;;;3.93;;
15699;SDS011;7950;42.744;23.174;2023-04-16T06:53:05;5.03;;;3.83;;
15699;SDS011;7950;42.744;23.174;2023-04-16T06:55:34;4.10;;;3.20;;
15699;SDS011;7950;42.744;23.174;2023-04-16T06:58:10;5.23;;;3.63;;
15699;SDS011;7950;42.744;23.174;2023-04-16T07:00:38;5.00;;;3.97;;
15699;SDS011;7950;42.744;23.174;2023-04-16T07:03:07;5.57;;;3.67;;
15699;SDS011;7950;42.744;23.174;2023-04-16T07:05:37;6.53;;;3.40;;
15699;SDS011;7950;42.744;23.174;2023-04-16T07:08:05;7.40;;;2.90;;
15699;SDS011;7950;42.744;23.174;2023-04-16T07:10:34;4.40;;;3.00;;
15699;SDS011;7950;42.744;23.174;2023-04-16T07:15:55;7.30;;;3.67;;
15699;SDS011;7950;42.744;23.174;2023-04-16T07:18:25;6.00;;;3.53;;
15699;SDS011;7950;42.744;23.174;2023-04-16T07:20:54;6.00;;;3.90;;
15699;SDS011;7950;42.744;23.174;2023-04-16T07:23:22;7.30;;;4.80;;
15699;SDS011;7950;42.744;23.174;2023-04-16T07:25:51;5.40;;;3.20;;
15699;SDS011;7950;42.744;23.174;2023-04-16T07:28:20;4.77;;;3.00;;
15699;SDS011;7950;42.744;23.174;2023-04-16T07:30:49;4.13;;;3.40;;
15699;SDS011;7950;42.744;23.174;2023-04-16T07:33:18;7.30;;;3.03;;
15699;SDS011;7950;42.744;23.174;2023-04-16T07:35:48;7.43;;;4.00;;
15699;SDS011;7950;42.744;23.174;2023-04-16T07:41:11;5.47;;;3.33;;
15699;SDS011;7950;42.744;23.174;2023-04-16T07:43:41;5.70;;;3.10;;
15699;SDS011;7950;42.744;23.174;2023-04-16T07:46:09;6.57;;;3.37;;
15699;SDS011;7950;42.744;23.174;2023-04-16T07:48:38;4.90;;;3.10;;
15699;SDS011;7950;42.744;23.174;2023-04-16T07:51:08;5.80;;;3.40;;
15699;SDS011;7950;42.744;23.174;2023-04-16T07:53:36;6.40;;;3.40;;
15699;SDS011;7950;42.744;23.174;2023-04-16T07:56:05;5.87;;;4.10;;
15699;SDS011;7950;42.744;23.174;2023-04-16T07:58:34;7.90;;;3.70;;
15699;SDS011;7950;42.744;23.174;2023-04-16T08:01:03;7.63;;;4.10;;
15699;SDS011;7950;42.744;23.174;2023-04-16T08:03:31;7.37;;;4.47;;
15699;SDS011;7950;42.744;23.174;2023-04-16T08:06:17;5.83;;;3.83;;
15699;SDS011;7950;42.744;23.174;2023-04-16T08:08:46;5.50;;;3.43;;
15699;SDS011;7950;42.744;23.174;2023-04-16T08:16:43;7.87;;;3.77;;
15699;SDS011;7950;42.744;23.174;2023-04-16T08:19:11;7.00;;;3.03;;
15699;SDS011;7950;42.744;23.174;2023-04-16T08:21:41;6.43;;;3.40;;
15699;SDS011;7950;42.744;23.174;2023-04-16T08:24:10;6.33;;;3.83;;
15699;SDS011;7950;42.744;23.174;2023-04-16T08:26:38;4.67;;;3.43;;
15699;SDS011;7950;42.744;23.174;2023-04-16T08:29:07;6.67;;;3.23;;
15699;SDS011;7950;42.744;23.174;2023-04-16T08:31:36;6.17;;;3.13;;
15699;SDS011;7950;42.744;23.174;2023-04-16T08:34:04;8.17;;;3.90;;
15699;SDS011;7950;42.744;23.174;2023-04-16T08:36:33;5.73;;;3.67;;
15699;SDS011;7950;42.744;23.174;2023-04-16T08:39:04;9.37;;;4.03;;
15699;SDS011;7950;42.744;23.174;2023-04-16T08:41:42;5.87;;;3.60;;
15699;SDS011;7950;42.744;23.174;2023-04-16T08:44:13;9.47;;;5.57;;
15699;SDS011;7950;42.744;23.174;2023-04-16T08:46:48;6.97;;;4.13;;
15699;SDS011;7950;42.744;23.174;2023-04-16T08:49:20;8.20;;;4.57;;
15699;SDS011;7950;42.744;23.174;2023-04-16T08:51:49;5.57;;;4.10;;
15699;SDS011;7950;42.744;23.174;2023-04-16T08:54:28;5.57;;;3.60;;
15699;SDS011;7950;42.744;23.174;2023-04-16T08:57:06;6.37;;;3.80;;
15699;SDS011;7950;42.744;23.174;2023-04-16T08:59:38;5.20;;;3.67;;
15699;SDS011;7950;42.744;23.174;2023-04-16T09:02:12;7.13;;;3.60;;
15699;SDS011;7950;42.744;23.174;2023-04-16T09:04:41;6.87;;;3.27;;
15699;SDS011;7950;42.744;23.174;2023-04-16T09:10:07;5.50;;;2.77;;
15699;SDS011;7950;42.744;23.174;2023-04-16T09:12:37;6.33;;;3.17;;
15699;SDS011;7950;42.744;23.174;2023-04-16T09:15:09;3.87;;;3.10;;
15699;SDS011;7950;42.744;23.174;2023-04-16T09:17:39;8.70;;;3.10;;
15699;SDS011;7950;42.744;23.174;2023-04-16T09:20:08;4.43;;;2.70;;
15699;SDS011;7950;42.744;23.174;2023-04-16T09:22:38;3.77;;;2.63;;
15699;SDS011;7950;42.744;23.174;2023-04-16T09:25:08;3.23;;;2.40;;
15699;SDS011;7950;42.744;23.174;2023-04-16T09:27:37;4.20;;;2.80;;
15699;SDS011;7950;42.744;23.174;2023-04-16T09:30:19;9.70;;;3.03;;
15699;SDS011;7950;42.744;23.174;2023-04-16T09:32:49;3.67;;;2.43;;
15699;SDS011;7950;42.744;23.174;2023-04-16T09:35:20;6.60;;;3.37;;
15699;SDS011;7950;42.744;23.174;2023-04-16T09:37:54;4.53;;;2.53;;
15699;SDS011;7950;42.744;23.174;2023-04-16T09:40:25;5.20;;;2.60;;
15699;SDS011;7950;42.744;23.174;2023-04-16T09:42:56;6.20;;;4.00;;
15699;SDS011;7950;42.744;23.174;2023-04-16T09:45:30;5.10;;;2.40;;
15699;SDS011;7950;42.744;23.174;2023-04-16T09:48:02;5.60;;;2.70;;
15699;SDS011;7950;42.744;23.174;2023-04-16T09:50:32;4.63;;;2.57;;
15699;SDS011;7950;42.744;23.174;2023-04-16T09:53:01;5.67;;;2.30;;
15699;SDS011;7950;42.744;23.174;2023-04-16T09:55:31;7.97;;;4.47;;
15699;SDS011;7950;42.744;23.174;2023-04-16T09:58:01;4.60;;;2.30;;
15699;SDS011;7950;42.744;23.174;2023-04-16T10:00:29;5.17;;;2.30;;
15699;SDS011;7950;42.744;23.174;2023-04-16T10:03:04;4.93;;;2.37;;
15699;SDS011;7950;42.744;23.174;2023-04-16T10:08:53;4.53;;;2.33;;
15699;SDS011;7950;42.744;23.174;2023-04-16T10:11:24;5.53;;;2.43;;
15699;SDS011;7950;42.744;23.174;2023-04-16T10:13:52;4.23;;;2.27;;
15699;SDS011;7950;42.744;23.174;2023-04-16T10:16:21;5.83;;;2.30;;
15699;SDS011;7950;42.744;23.174;2023-04-16T10:18:49;5.37;;;2.20;;
15699;SDS011;7950;42.744;23.174;2023-04-16T10:21:19;3.00;;;2.17;;
15699;SDS011;7950;42.744;23.174;2023-04-16T10:23:49;3.83;;;1.83;;
15699;SDS011;7950;42.744;23.174;2023-04-16T10:26:26;2.73;;;1.60;;
15699;SDS011;7950;42.744;23.174;2023-04-16T10:28:57;2.87;;;1.80;;
15699;SDS011;7950;42.744;23.174;2023-04-16T10:31:26;3.83;;;1.80;;
15699;SDS011;7950;42.744;23.174;2023-04-16T10:33:55;4.40;;;2.00;;
15699;SDS011;7950;42.744;23.174;2023-04-16T10:36:26;4.70;;;2.00;;
15699;SDS011;7950;42.744;23.174;2023-04-16T10:38:56;5.37;;;2.63;;
15699;SDS011;7950;42.744;23.174;2023-04-16T10:41:27;4.03;;;2.27;;
15699;SDS011;7950;42.744;23.174;2023-04-16T10:44:05;6.30;;;2.37;;
15699;SDS011;7950;42.744;23.174;2023-04-16T10:46:36;2.47;;;1.80;;
15699;SDS011;7950;42.744;23.174;2023-04-16T10:52:06;2.30;;;1.60;;
15699;SDS011;7950;42.744;23.174;2023-04-16T10:54:38;1.97;;;1.50;;
15699;SDS011;7950;42.744;23.174;2023-04-16T10:57:09;2.30;;;1.63;;
15699;SDS011;7950;42.744;23.174;2023-04-16T10:59:44;5.60;;;3.40;;
15699;SDS011;7950;42.744;23.174;2023-04-16T11:02:15;3.10;;;1.60;;
15699;SDS011;7950;42.744;23.174;2023-04-16T11:04:45;4.03;;;1.70;;
15699;SDS011;7950;42.744;23.174;2023-04-16T11:07:31;6.03;;;1.80;;
15699;SDS011;7950;42.744;23.174;2023-04-16T11:10:02;2.37;;;1.50;;
15699;SDS011;7950;42.744;23.174;2023-04-16T11:12:34;3.43;;;1.73;;
15699;SDS011;7950;42.744;23.174;2023-04-16T11:15:05;3.07;;;1.70;;
15699;SDS011;7950;42.744;23.174;2023-04-16T11:20:29;3.97;;;2.00;;
15699;SDS011;7950;42.744;23.174;2023-04-16T11:22:58;2.60;;;1.73;;
15699;SDS011;7950;42.744;23.174;2023-04-16T11:25:27;4.37;;;1.70;;
15699;SDS011;7950;42.744;23.174;2023-04-16T11:28:01;4.63;;;2.07;;
15699;SDS011;7950;42.744;23.174;2023-04-16T11:30:30;4.33;;;2.17;;
15699;SDS011;7950;42.744;23.174;2023-04-16T11:33:01;3.70;;;2.10;;
15699;SDS011;7950;42.744;23.174;2023-04-16T11:35:29;2.60;;;1.87;;
15699;SDS011;7950;42.744;23.174;2023-04-16T11:37:58;3.00;;;1.90;;
15699;SDS011;7950;42.744;23.174;2023-04-16T11:40:28;7.90;;;2.23;;
15699;SDS011;7950;42.744;23.174;2023-04-16T11:43:01;4.37;;;1.90;;
15699;SDS011;7950;42.744;23.174;2023-04-16T11:45:31;3.73;;;2.07;;
15699;SDS011;7950;42.744;23.174;2023-04-16T11:47:59;5.10;;;2.10;;
15699;SDS011;7950;42.744;23.174;2023-04-16T11:50:28;3.00;;;2.07;;
15699;SDS011;7950;42.744;23.174;2023-04-16T11:53:02;5.27;;;2.20;;
15699;SDS011;7950;42.744;23.174;2023-04-16T11:55:33;4.47;;;2.67;;
15699;SDS011;7950;42.744;23.174;2023-04-16T11:58:12;5.37;;;2.23;;
15699;SDS011;7950;42.744;23.174;2023-04-16T12:00:43;2.90;;;1.90;;
15699;SDS011;7950;42.744;23.174;2023-04-16T12:03:11;3.70;;;2.20;;
15699;SDS011;7950;42.744;23.174;2023-04-16T12:05:40;6.40;;;3.30;;
15699;SDS011;7950;42.744;23.174;2023-04-16T12:08:09;3.70;;;2.40;;
15699;SDS011;7950;42.744;23.174;2023-04-16T12:10:51;4.07;;;2.27;;
15699;SDS011;7950;42.744;23.174;2023-04-16T12:13:23;7.57;;;2.20;;
15699;SDS011;7950;42.744;23.174;2023-04-16T12:15:52;4.63;;;1.97;;
15699;SDS011;7950;42.744;23.174;2023-04-16T12:18:23;4.57;;;2.10;;
15699;SDS011;7950;42.744;23.174;2023-04-16T12:20:53;2.57;;;1.90;;
15699;SDS011;7950;42.744;23.174;2023-04-16T12:23:22;2.60;;;1.70;;
15699;SDS011;7950;42.744;23.174;2023-04-16T12:25:52;7.23;;;2.17;;
15699;SDS011;7950;42.744;23.174;2023-04-16T12:28:30;3.27;;;2.07;;
15699;SDS011;7950;42.744;23.174;2023-04-16T12:31:08;4.60;;;2.07;;
15699;SDS011;7950;42.744;23.174;2023-04-16T12:33:37;4.10;;;2.10;;
15699;SDS011;7950;42.744;23.174;2023-04-16T12:36:15;6.03;;;2.10;;
15699;SDS011;7950;42.744;23.174;2023-04-16T12:38:45;2.37;;;1.77;;
15699;SDS011;7950;42.744;23.174;2023-04-16T12:41:13;2.97;;;1.83;;
15699;SDS011;7950;42.744;23.174;2023-04-16T12:43:43;4.10;;;2.00;;
15699;SDS011;7950;42.744;23.174;2023-04-16T12:46:12;2.87;;;2.10;;
15699;SDS011;7950;42.744;23.174;2023-04-16T12:48:40;3.53;;;2.00;;
15699;SDS011;7950;42.744;23.174;2023-04-16T12:51:09;4.87;;;2.30;;
15699;SDS011;7950;42.744;23.174;2023-04-16T12:53:37;2.93;;;2.00;;
15699;SDS011;7950;42.744;23.174;2023-04-16T12:56:06;3.27;;;1.83;;
15699;SDS011;7950;42.744;23.174;2023-04-16T12:58:34;3.93;;;1.80;;
15699;SDS011;7950;42.744;23.174;2023-04-16T13:01:04;6.17;;;2.30;;
15699;SDS011;7950;42.744;23.174;2023-04-16T13:03:33;4.87;;;2.03;;
15699;SDS011;7950;42.744;23.174;2023-04-16T13:06:02;3.97;;;2.30;;
15699;SDS011;7950;42.744;23.174;2023-04-16T13:08:31;5.17;;;2.30;;
15699;SDS011;7950;42.744;23.174;2023-04-16T13:11:00;4.23;;;2.10;;
15699;SDS011;7950;42.744;23.174;2023-04-16T13:13:28;3.67;;;1.90;;
15699;SDS011;7950;42.744;23.174;2023-04-16T13:15:57;3.80;;;2.00;;
15699;SDS011;7950;42.744;23.174;2023-04-16T13:18:27;1.93;;;1.60;;
15699;SDS011;7950;42.744;23.174;2023-04-16T13:20:56;3.80;;;2.20;;
15699;SDS011;7950;42.744;23.174;2023-04-16T13:23:25;2.63;;;2.20;;
15699;SDS011;7950;42.744;23.174;2023-04-16T13:25:53;2.73;;;2.17;;
15699;SDS011;7950;42.744;23.174;2023-04-16T13:28:22;4.03;;;1.90;;
15699;SDS011;7950;42.744;23.174;2023-04-16T13:30:51;6.67;;;2.23;;
15699;SDS011;7950;42.744;23.174;2023-04-16T13:33:20;3.43;;;1.80;;
15699;SDS011;7950;42.744;23.174;2023-04-16T13:35:50;4.13;;;1.63;;
15699;SDS011;7950;42.744;23.174;2023-04-16T13:38:19;4.27;;;2.20;;
15699;SDS011;7950;42.744;23.174;2023-04-16T13:40:47;1.93;;;1.73;;
15699;SDS011;7950;42.744;23.174;2023-04-16T13:43:16;2.30;;;1.60;;
15699;SDS011;7950;42.744;23.174;2023-04-16T13:45:44;3.67;;;1.30;;
15699;SDS011;7950;42.744;23.174;2023-04-16T13:48:13;1.83;;;1.40;;
15699;SDS011;7950;42.744;23.174;2023-04-16T13:50:43;1.30;;;1.20;;
15699;SDS011;7950;42.744;23.174;2023-04-16T13:53:25;2.73;;;1.20;;
15699;SDS011;7950;42.744;23.174;2023-04-16T13:55:53;1.80;;;1.10;;
15699;SDS011;7950;42.744;23.174;2023-04-16T13:58:21;1.93;;;1.20;;
15699;SDS011;7950;42.744;23.174;2023-04-16T14:00:50;2.07;;;1.30;;
15699;SDS011;7950;42.744;23.174;2023-04-16T14:03:18;1.83;;;1.60;;
15699;SDS011;7950;42.744;23.174;2023-04-16T14:05:47;1.97;;;1.77;;
15699;SDS011;7950;42.744;23.174;2023-04-16T14:08:16;2.77;;;1.77;;
15699;SDS011;7950;42.744;23.174;2023-04-16T14:10:48;3.77;;;1.80;;
15699;SDS011;7950;42.744;23.174;2023-04-16T14:13:17;2.80;;;1.60;;
15699;SDS011;7950;42.744;23.174;2023-04-16T14:15:45;3.53;;;2.10;;
15699;SDS011;7950;42.744;23.174;2023-04-16T14:18:14;2.67;;;2.00;;
15699;SDS011;7950;42.744;23.174;2023-04-16T14:20:42;2.67;;;2.30;;
15699;SDS011;7950;42.744;23.174;2023-04-16T14:23:11;3.93;;;2.60;;
15699;SDS011;7950;42.744;23.174;2023-04-16T14:25:40;2.57;;;2.37;;
15699;SDS011;7950;42.744;23.174;2023-04-16T14:28:10;2.67;;;1.90;;
15699;SDS011;7950;42.744;23.174;2023-04-16T14:30:41;2.30;;;2.10;;
15699;SDS011;7950;42.744;23.174;2023-04-16T14:33:09;3.87;;;1.80;;
15699;SDS011;7950;42.744;23.174;2023-04-16T14:35:38;2.13;;;1.63;;
15699;SDS011;7950;42.744;23.174;2023-04-16T14:38:06;4.50;;;2.97;;
15699;SDS011;7950;42.744;23.174;2023-04-16T14:40:35;7.67;;;4.73;;
15699;SDS011;7950;42.744;23.174;2023-04-16T14:43:03;11.33;;;6.27;;
15699;SDS011;7950;42.744;23.174;2023-04-16T14:45:33;10.43;;;5.33;;
15699;SDS011;7950;42.744;23.174;2023-04-16T14:48:04;18.67;;;8.57;;
15699;SDS011;7950;42.744;23.174;2023-04-16T14:50:33;11.47;;;5.90;;
15699;SDS011;7950;42.744;23.174;2023-04-16T14:53:03;16.17;;;8.43;;
15699;SDS011;7950;42.744;23.174;2023-04-16T14:55:32;23.53;;;11.57;;
15699;SDS011;7950;42.744;23.174;2023-04-16T14:58:00;15.70;;;7.53;;
15699;SDS011;7950;42.744;23.174;2023-04-16T15:00:29;11.27;;;6.37;;
15699;SDS011;7950;42.744;23.174;2023-04-16T15:03:00;12.10;;;7.07;;
15699;SDS011;7950;42.744;23.174;2023-04-16T15:05:29;8.50;;;4.53;;
15699;SDS011;7950;42.744;23.174;2023-04-16T15:07:58;10.50;;;5.30;;
15699;SDS011;7950;42.744;23.174;2023-04-16T15:10:27;24.40;;;11.57;;
15699;SDS011;7950;42.744;23.174;2023-04-16T15:12:55;10.33;;;5.80;;
15699;SDS011;7950;42.744;23.174;2023-04-16T15:15:23;8.67;;;5.93;;
15699;SDS011;7950;42.744;23.174;2023-04-16T15:17:52;9.03;;;5.40;;
15699;SDS011;7950;42.744;23.174;2023-04-16T15:20:23;5.40;;;3.73;;
15699;SDS011;7950;42.744;23.174;2023-04-16T15:22:52;9.17;;;6.63;;
15699;SDS011;7950;42.744;23.174;2023-04-16T15:25:21;5.40;;;4.67;;
15699;SDS011;7950;42.744;23.174;2023-04-16T15:27:51;6.47;;;4.70;;
15699;SDS011;7950;42.744;23.174;2023-04-16T15:30:19;7.57;;;5.60;;
15699;SDS011;7950;42.744;23.174;2023-04-16T15:32:48;9.13;;;5.87;;
15699;SDS011;7950;42.744;23.174;2023-04-16T15:35:16;5.90;;;4.13;;
15699;SDS011;7950;42.744;23.174;2023-04-16T15:37:46;5.03;;;3.87;;
15699;SDS011;7950;42.744;23.174;2023-04-16T15:40:16;5.20;;;3.27;;
15699;SDS011;7950;42.744;23.174;2023-04-16T15:42:45;3.13;;;2.60;;
15699;SDS011;7950;42.744;23.174;2023-04-16T15:45:14;3.47;;;2.70;;
15699;SDS011;7950;42.744;23.174;2023-04-16T15:47:43;4.13;;;3.10;;
15699;SDS011;7950;42.744;23.174;2023-04-16T15:50:16;3.13;;;2.43;;
15699;SDS011;7950;42.744;23.174;2023-04-16T15:52:46;2.30;;;2.10;;
15699;SDS011;7950;42.744;23.174;2023-04-16T15:55:15;3.53;;;2.20;;